createdAt,value
2019-02-04T00:02:33.289Z,10.77
2019-02-04T00:05:37.023Z,9.47
2019-02-04T00:08:40.562Z,9.57
2019-02-04T00:11:44.413Z,11.90
2019-02-04T00:14:48.071Z,9.43
2019-02-04T00:17:51.776Z,10.30
2019-02-04T00:20:55.509Z,9.90
2019-02-04T00:23:59.260Z,10.10
2019-02-04T00:27:02.823Z,10.63
2019-02-04T00:30:07.129Z,9.90
2019-02-04T00:33:10.754Z,9.00
2019-02-04T00:36:14.342Z,12.27
2019-02-04T00:39:17.878Z,10.37
2019-02-04T00:42:21.571Z,11.10
2019-02-04T00:45:25.237Z,11.90
2019-02-04T00:48:29.051Z,13.30
2019-02-04T00:51:32.886Z,10.53
2019-02-04T00:54:36.667Z,7.40
2019-02-04T00:57:40.447Z,10.30
2019-02-04T01:00:44.190Z,11.70
2019-02-04T01:03:47.936Z,11.97
2019-02-04T01:06:51.668Z,10.47
2019-02-04T01:09:55.306Z,8.90
2019-02-04T01:12:59.125Z,10.07
2019-02-04T01:16:02.829Z,10.07
2019-02-04T01:19:06.571Z,10.20
2019-02-04T01:22:10.274Z,10.33
2019-02-04T01:25:14.031Z,9.50
2019-02-04T01:28:17.656Z,8.80
2019-02-04T01:31:21.298Z,9.33
2019-02-04T01:34:25.051Z,9.17
2019-02-04T01:37:28.668Z,7.93
2019-02-04T01:40:32.258Z,7.50
2019-02-04T01:43:36.026Z,6.60
2019-02-04T01:46:39.655Z,7.50
2019-02-04T01:49:43.333Z,7.17
2019-02-04T01:52:47.102Z,9.00
2019-02-04T01:55:50.744Z,8.67
2019-02-04T01:58:54.628Z,7.80
2019-02-04T02:01:58.296Z,7.37
2019-02-04T02:05:01.993Z,12.43
2019-02-04T02:08:05.745Z,10.40
2019-02-04T02:11:09.373Z,8.43
2019-02-04T02:14:13.127Z,8.17
2019-02-04T02:17:25.968Z,8.73
2019-02-04T02:20:22.224Z,8.23
2019-02-04T02:23:25.794Z,9.33
2019-02-04T02:26:29.425Z,9.13
2019-02-04T02:29:33.053Z,10.10
2019-02-04T02:32:36.543Z,8.43
2019-02-04T02:35:40.210Z,8.90
2019-02-04T02:38:43.808Z,9.30
2019-02-04T02:41:47.558Z,11.37
2019-02-04T02:44:51.107Z,10.80
2019-02-04T02:47:54.766Z,9.73
2019-02-04T02:50:58.436Z,8.10
2019-02-04T02:54:02.138Z,9.37
2019-02-04T02:57:05.728Z,10.30
2019-02-04T03:00:11.988Z,10.20
2019-02-04T03:03:15.670Z,9.87
2019-02-04T03:06:19.281Z,14.03
2019-02-04T03:09:22.860Z,8.90
2019-02-04T03:12:26.397Z,11.47
2019-02-04T03:15:29.950Z,11.43
2019-02-04T03:18:33.594Z,9.33
2019-02-04T03:21:37.265Z,10.67
2019-02-04T03:24:40.918Z,14.30
2019-02-04T03:27:44.536Z,10.37
2019-02-04T03:30:48.339Z,10.10
2019-02-04T03:33:51.978Z,8.77
2019-02-04T03:36:55.659Z,9.23
2019-02-04T03:39:59.293Z,7.87
2019-02-04T03:43:02.942Z,12.57
2019-02-04T03:46:06.605Z,9.43
2019-02-04T03:49:10.269Z,9.40
2019-02-04T03:52:13.895Z,10.43
2019-02-04T03:55:17.549Z,12.23
2019-02-04T03:58:21.222Z,10.80
2019-02-04T04:01:25.008Z,12.40
2019-02-04T04:04:28.508Z,12.73
2019-02-04T04:07:32.113Z,10.30
2019-02-04T04:10:35.836Z,11.10
2019-02-04T04:13:39.534Z,12.93
2019-02-04T04:16:43.194Z,12.17
2019-02-04T04:19:46.808Z,11.03
2019-02-04T04:22:50.447Z,10.27
2019-02-04T04:25:54.106Z,10.80
2019-02-04T04:28:57.822Z,11.83
2019-02-04T04:32:01.538Z,12.00
2019-02-04T04:35:06.101Z,12.00
2019-02-04T04:38:09.712Z,13.93
2019-02-04T04:41:13.361Z,13.00
2019-02-04T04:44:16.942Z,13.07
2019-02-04T04:47:20.592Z,12.27
2019-02-04T04:50:24.299Z,14.03
2019-02-04T04:53:27.900Z,14.17
2019-02-04T04:56:31.454Z,16.93
2019-02-04T04:59:35.023Z,17.27
2019-02-04T05:02:38.543Z,14.90
2019-02-04T05:05:42.152Z,15.63
2019-02-04T05:08:45.822Z,15.83
2019-02-04T05:11:49.428Z,14.40
2019-02-04T05:14:53.083Z,14.17
2019-02-04T05:17:56.744Z,15.40
2019-02-04T05:21:00.571Z,13.67
2019-02-04T05:24:04.188Z,16.63
2019-02-04T05:27:07.722Z,15.67
2019-02-04T05:30:13.461Z,16.27
2019-02-04T05:33:17.079Z,15.17
2019-02-04T05:36:20.716Z,12.50
2019-02-04T05:39:24.393Z,12.97
2019-02-04T05:42:27.953Z,14.67
2019-02-04T05:45:31.526Z,18.30
2019-02-04T05:48:35.105Z,14.77
2019-02-04T05:51:40.716Z,15.30
2019-02-04T05:54:44.261Z,15.63
2019-02-04T05:57:47.826Z,17.20
2019-02-04T06:00:51.477Z,18.30
2019-02-04T06:03:55.063Z,17.30
2019-02-04T06:06:58.720Z,16.43
2019-02-04T06:10:02.262Z,16.37
2019-02-04T06:13:05.907Z,20.40
2019-02-04T06:16:09.635Z,17.70
2019-02-04T06:19:13.458Z,15.47
2019-02-04T06:22:17.137Z,19.67
2019-02-04T06:25:20.959Z,20.33
2019-02-04T06:28:24.588Z,20.37
2019-02-04T06:31:28.535Z,16.97
2019-02-04T06:34:32.270Z,17.30
2019-02-04T06:37:36.037Z,18.53
2019-02-04T06:40:39.805Z,14.13
2019-02-04T06:43:43.492Z,14.17
2019-02-04T06:46:47.126Z,17.10
2019-02-04T06:49:50.866Z,13.80
2019-02-04T06:52:54.629Z,16.73
2019-02-04T06:55:58.233Z,15.87
2019-02-04T06:59:01.950Z,16.30
2019-02-04T07:02:05.798Z,13.20
2019-02-04T07:05:09.571Z,18.33
2019-02-04T07:08:13.278Z,12.97
2019-02-04T07:11:17.035Z,15.27
2019-02-04T07:14:20.673Z,16.23
2019-02-04T07:17:24.440Z,15.97
2019-02-04T07:20:28.205Z,14.63
2019-02-04T07:23:31.822Z,14.70
2019-02-04T07:26:35.533Z,16.33
2019-02-04T07:29:39.090Z,19.07
2019-02-04T07:32:42.767Z,16.20
2019-02-04T07:35:46.427Z,17.30
2019-02-04T07:38:50.080Z,18.47
2019-02-04T07:41:53.755Z,15.47
2019-02-04T07:44:57.523Z,20.33
2019-02-04T07:48:01.284Z,19.50
2019-02-04T07:51:04.966Z,19.30
2019-02-04T07:54:08.690Z,16.83
2019-02-04T07:57:12.282Z,22.00
2019-02-04T08:00:19.382Z,15.17
2019-02-04T08:03:23.373Z,19.00
2019-02-04T08:06:27.001Z,18.17
2019-02-04T08:09:30.615Z,20.40
2019-02-04T08:12:34.318Z,18.13
2019-02-04T08:15:38.546Z,20.67
2019-02-04T08:18:42.198Z,26.10
2019-02-04T08:21:45.799Z,21.50
2019-02-04T08:24:49.458Z,19.87
2019-02-04T08:27:53.203Z,19.17
2019-02-04T08:30:58.025Z,17.20
2019-02-04T08:37:32.974Z,27.67
2019-02-04T08:40:37.716Z,18.63
2019-02-04T08:43:41.368Z,19.90
2019-02-04T08:46:45.402Z,21.20
2019-02-04T08:53:21.298Z,16.90
2019-02-04T08:56:25.111Z,15.07
2019-02-04T08:59:29.899Z,16.93
2019-02-04T09:02:33.850Z,16.97
2019-02-04T09:05:37.430Z,14.47
2019-02-04T09:08:41.076Z,15.60
2019-02-04T09:11:44.837Z,16.13
2019-02-04T09:14:48.452Z,17.17
2019-02-04T09:17:52.057Z,14.40
2019-02-04T09:20:55.634Z,13.77
2019-02-04T09:23:59.280Z,15.97
2019-02-04T09:27:02.990Z,14.27
2019-02-04T09:30:08.931Z,16.97
2019-02-04T09:33:12.546Z,18.60
2019-02-04T09:36:16.195Z,16.57
2019-02-04T09:39:19.756Z,17.30
2019-02-04T09:42:23.363Z,16.77
2019-02-04T09:45:27.837Z,16.43
2019-02-04T09:48:30.601Z,19.97
2019-02-04T09:51:34.151Z,17.27
2019-02-04T09:54:37.704Z,14.80
2019-02-04T09:57:41.286Z,16.10
2019-02-04T10:00:44.945Z,18.50
2019-02-04T10:03:48.379Z,14.10
2019-02-04T10:06:51.530Z,20.07
2019-02-04T10:09:54.721Z,20.20
2019-02-04T10:12:57.857Z,14.83
2019-02-04T10:16:01.021Z,16.90
2019-02-04T10:19:04.103Z,14.10
2019-02-04T10:22:07.421Z,16.13
2019-02-04T10:25:11.398Z,18.80
2019-02-04T10:28:14.852Z,20.17
2019-02-04T10:31:18.033Z,15.80
2019-02-04T10:34:21.124Z,15.07
2019-02-04T10:37:24.192Z,14.53
2019-02-04T10:40:27.647Z,16.07
2019-02-04T10:43:30.768Z,14.23
2019-02-04T10:46:33.901Z,18.13
2019-02-04T10:49:36.964Z,17.10
2019-02-04T10:52:40.200Z,13.83
2019-02-04T10:55:43.235Z,15.60
2019-02-04T10:58:46.337Z,15.63
2019-02-04T11:01:49.432Z,18.80
2019-02-04T11:04:52.579Z,15.83
2019-02-04T11:07:55.749Z,15.50
2019-02-04T11:10:58.946Z,16.70
2019-02-04T11:14:02.033Z,16.97
2019-02-04T11:17:05.256Z,16.43
2019-02-04T11:20:12.771Z,16.00
2019-02-04T11:23:15.747Z,15.87
2019-02-04T11:26:18.869Z,17.20
2019-02-04T11:29:22.010Z,16.63
2019-02-04T11:32:25.064Z,15.97
2019-02-04T11:35:28.220Z,15.37
2019-02-04T11:38:31.356Z,14.27
2019-02-04T11:41:34.429Z,12.83
2019-02-04T11:44:37.533Z,14.23
2019-02-04T11:47:40.625Z,14.30
2019-02-04T11:50:43.726Z,13.00
2019-02-04T11:53:46.811Z,16.70
2019-02-04T11:56:50.471Z,13.97
2019-02-04T11:59:53.595Z,12.73
2019-02-04T12:02:57.292Z,10.53
2019-02-04T12:06:00.402Z,12.30
2019-02-04T12:09:03.635Z,9.87
2019-02-04T12:12:06.786Z,10.03
2019-02-04T12:15:11.905Z,13.47
2019-02-04T12:18:15.022Z,9.50
2019-02-04T12:21:21.692Z,10.97
2019-02-04T12:24:21.204Z,9.87
2019-02-04T12:27:31.840Z,7.17
2019-02-04T12:30:31.087Z,7.27
2019-02-04T12:33:32.526Z,7.20
2019-02-04T12:36:35.640Z,6.00
2019-02-04T12:39:38.832Z,7.23
2019-02-04T12:42:42.028Z,5.20
2019-02-04T12:45:45.209Z,6.00
2019-02-04T12:48:48.303Z,9.03
2019-02-04T12:51:52.039Z,5.87
2019-02-04T12:54:55.111Z,5.70
2019-02-04T12:57:58.288Z,7.63
2019-02-04T13:01:01.369Z,5.47
2019-02-04T13:04:04.681Z,6.83
2019-02-04T13:07:07.845Z,6.37
2019-02-04T13:10:11.524Z,7.30
2019-02-04T13:13:16.737Z,5.03
2019-02-04T13:16:19.911Z,5.57
2019-02-04T13:19:23.029Z,3.77
2019-02-04T13:22:26.231Z,4.97
2019-02-04T13:25:29.450Z,3.60
2019-02-04T13:28:32.599Z,3.60
2019-02-04T13:31:36.382Z,5.13
2019-02-04T13:34:39.499Z,6.20
2019-02-04T13:37:42.568Z,4.93
2019-02-04T13:40:45.669Z,7.50
2019-02-04T13:43:48.729Z,4.53
2019-02-04T13:46:51.849Z,6.93
2019-02-04T13:49:54.948Z,5.80
2019-02-04T13:52:58.004Z,5.40
2019-02-04T13:56:01.303Z,5.87
2019-02-04T13:59:04.382Z,11.07
2019-02-04T14:02:07.526Z,5.93
2019-02-04T14:05:10.643Z,6.23
2019-02-04T14:08:13.779Z,8.10
2019-02-04T14:11:17.180Z,6.07
2019-02-04T14:14:20.299Z,6.47
2019-02-04T14:17:24.439Z,8.17
2019-02-04T14:20:26.596Z,6.27
2019-02-04T14:23:29.809Z,7.40
2019-02-04T14:26:32.984Z,7.77
2019-02-04T14:29:36.076Z,8.93
2019-02-04T14:32:39.172Z,8.60
2019-02-04T14:35:42.520Z,6.87
2019-02-04T14:38:45.719Z,11.00
2019-02-04T14:41:48.840Z,6.83
2019-02-04T14:45:02.137Z,8.97
2019-02-04T14:48:16.080Z,8.60
2019-02-04T14:51:30.153Z,7.03
2019-02-04T14:54:50.311Z,8.53
2019-02-04T14:58:02.108Z,8.57
2019-02-04T15:03:20.036Z,7.47
2019-02-04T15:08:40.020Z,6.53
2019-02-04T15:11:57.891Z,9.03
2019-02-04T15:15:15.010Z,6.83
2019-02-04T15:18:29.867Z,9.17
2019-02-04T15:21:43.828Z,7.23
2019-02-04T15:25:02.974Z,7.27
2019-02-04T15:28:17.987Z,9.33
2019-02-04T15:31:33.300Z,8.20
2019-02-04T15:35:04.783Z,11.93
2019-02-04T15:38:14.451Z,12.00
2019-02-04T15:41:26.863Z,15.67
2019-02-04T15:44:53.451Z,13.20
2019-02-04T15:48:03.174Z,13.93
2019-02-04T15:51:10.975Z,12.47
2019-02-04T15:54:14.076Z,15.70
2019-02-04T15:57:17.200Z,11.47
2019-02-04T16:00:20.414Z,8.93
2019-02-04T16:03:24.469Z,9.93
2019-02-04T16:06:27.700Z,11.37
2019-02-04T16:09:30.926Z,10.83
2019-02-04T16:12:34.024Z,9.37
2019-02-04T16:15:37.107Z,10.20
2019-02-04T16:18:40.285Z,10.87
2019-02-04T16:21:43.400Z,9.00
2019-02-04T16:24:46.566Z,9.33
2019-02-04T16:27:49.661Z,10.10
2019-02-04T16:30:52.733Z,10.37
2019-02-04T16:33:55.851Z,32.27
2019-02-04T16:36:58.932Z,17.80
2019-02-04T16:40:02.048Z,14.00
2019-02-04T16:43:05.246Z,16.73
2019-02-04T16:46:08.424Z,16.30
2019-02-04T16:49:11.515Z,11.93
2019-02-04T16:52:14.605Z,12.03
2019-02-04T16:55:17.687Z,9.13
2019-02-04T16:58:20.796Z,10.90
2019-02-04T17:01:23.991Z,10.70
2019-02-04T17:04:27.078Z,13.97
2019-02-04T17:07:30.184Z,11.43
2019-02-04T17:10:33.344Z,12.33
2019-02-04T17:13:36.480Z,12.77
2019-02-04T17:16:39.667Z,19.63
2019-02-04T17:19:42.742Z,12.90
2019-02-04T17:22:45.857Z,17.20
2019-02-04T17:25:49.054Z,15.90
2019-02-04T17:28:52.265Z,14.47
2019-02-04T17:31:55.431Z,12.93
2019-02-04T17:34:58.536Z,13.03
2019-02-04T17:38:04.110Z,16.33
2019-02-04T17:41:04.872Z,18.17
2019-02-04T17:44:07.963Z,13.93
2019-02-04T17:47:11.043Z,14.93
2019-02-04T17:50:15.492Z,17.80
2019-02-04T17:53:18.624Z,17.47
2019-02-04T17:56:21.834Z,17.27
2019-02-04T17:59:24.905Z,16.97
2019-02-04T18:02:27.989Z,17.90
2019-02-04T18:05:31.170Z,22.87
2019-02-04T18:08:34.263Z,19.30
2019-02-04T18:11:37.348Z,19.90
2019-02-04T18:14:42.122Z,13.23
2019-02-04T18:17:43.861Z,11.80
2019-02-04T18:20:47.044Z,14.97
2019-02-04T18:23:50.239Z,16.03
2019-02-04T18:26:53.346Z,11.37
2019-02-04T18:29:56.538Z,15.47
2019-02-04T18:32:59.733Z,13.70
2019-02-04T18:36:02.936Z,16.13
2019-02-04T18:39:08.350Z,12.73
2019-02-04T18:42:11.473Z,15.83
2019-02-04T18:45:17.997Z,12.53
2019-02-04T18:48:21.067Z,15.93
2019-02-04T18:51:24.188Z,16.67
2019-02-04T18:54:27.308Z,19.23
2019-02-04T18:57:30.523Z,19.80
2019-02-04T19:00:33.876Z,20.63
2019-02-04T19:03:36.818Z,22.10
2019-02-04T19:06:47.463Z,23.07
2019-02-04T19:09:43.156Z,19.13
2019-02-04T19:12:46.268Z,19.13
2019-02-04T19:15:49.476Z,25.10
2019-02-04T19:18:52.572Z,23.33
2019-02-04T19:21:55.780Z,19.67
2019-02-04T19:24:58.951Z,17.93
2019-02-04T19:28:02.198Z,20.80
2019-02-04T19:31:10.742Z,16.70
2019-02-04T19:34:13.834Z,21.27
2019-02-04T19:37:16.932Z,19.20
2019-02-04T19:40:20.048Z,17.60
2019-02-04T19:43:23.208Z,17.50
2019-02-04T19:46:26.299Z,16.67
2019-02-04T19:49:29.377Z,19.83
2019-02-04T19:52:32.493Z,19.40
2019-02-04T19:55:35.587Z,18.23
2019-02-04T19:58:38.708Z,51.00
2019-02-04T20:01:41.879Z,74.23
2019-02-04T20:04:44.969Z,29.33
2019-02-04T20:07:48.045Z,23.73
2019-02-04T20:10:51.141Z,24.77
2019-02-04T20:13:54.269Z,18.73
2019-02-04T20:16:57.428Z,18.53
2019-02-04T20:20:00.543Z,20.27
2019-02-04T20:23:03.635Z,21.20
2019-02-04T20:26:06.734Z,17.00
2019-02-04T20:29:09.942Z,13.40
2019-02-04T20:32:13.104Z,17.53
2019-02-04T20:35:16.195Z,18.70
2019-02-04T20:38:19.400Z,22.60
2019-02-04T20:41:22.577Z,20.53
2019-02-04T20:44:25.704Z,17.70
2019-02-04T20:47:28.796Z,15.13
2019-02-04T20:50:34.470Z,15.90
2019-02-04T20:53:37.609Z,17.80
2019-02-04T20:56:40.712Z,16.80
2019-02-04T20:59:43.803Z,16.33
2019-02-04T21:02:47.000Z,16.37
2019-02-04T21:05:50.120Z,16.93
2019-02-04T21:08:53.287Z,15.07
2019-02-04T21:11:56.439Z,18.20
2019-02-04T21:14:59.575Z,21.20
2019-02-04T21:18:02.803Z,19.53
2019-02-04T21:21:05.957Z,16.93
2019-02-04T21:24:09.114Z,15.93
2019-02-04T21:27:12.248Z,19.07
2019-02-04T21:30:19.898Z,19.60
2019-02-04T21:33:23.194Z,17.27
2019-02-04T21:36:26.463Z,20.03
2019-02-04T21:39:30.623Z,18.40
2019-02-04T21:42:33.786Z,17.80
2019-02-04T21:45:36.957Z,18.27
2019-02-04T21:48:40.115Z,19.53
2019-02-04T21:51:43.199Z,18.37
2019-02-04T21:54:46.271Z,17.77
2019-02-04T21:57:49.402Z,18.17
2019-02-04T22:00:52.491Z,19.03
2019-02-04T22:03:55.583Z,17.93
2019-02-04T22:06:59.143Z,21.70
2019-02-04T22:10:02.218Z,22.47
2019-02-04T22:13:05.366Z,22.77
2019-02-04T22:16:08.472Z,28.23
2019-02-04T22:19:11.531Z,43.50
2019-02-04T22:22:14.644Z,56.90
2019-02-04T22:25:20.298Z,41.03
2019-02-04T22:28:22.787Z,37.13
2019-02-04T22:31:25.880Z,27.57
2019-02-04T22:34:28.939Z,23.03
2019-02-04T22:37:32.059Z,20.83
2019-02-04T22:40:35.135Z,20.97
2019-02-04T22:43:38.248Z,18.67
2019-02-04T22:46:41.315Z,17.10
2019-02-04T22:49:44.417Z,17.07
2019-02-04T22:52:47.504Z,19.80
2019-02-04T22:55:50.572Z,20.13
2019-02-04T22:58:53.698Z,16.67
2019-02-04T23:01:57.891Z,18.20
2019-02-04T23:05:01.013Z,18.03
2019-02-04T23:08:04.086Z,17.37
2019-02-04T23:11:07.196Z,17.87
2019-02-04T23:14:10.305Z,14.93
2019-02-04T23:17:13.478Z,17.47
2019-02-04T23:20:16.573Z,16.87
2019-02-04T23:23:19.663Z,16.50
2019-02-04T23:26:22.763Z,23.07
2019-02-04T23:29:25.949Z,23.30
2019-02-04T23:32:29.031Z,22.03
2019-02-04T23:35:32.147Z,19.03
2019-02-04T23:38:35.321Z,19.37
2019-02-04T23:41:38.419Z,19.30
2019-02-04T23:44:41.510Z,16.93
2019-02-04T23:47:44.602Z,17.33
2019-02-04T23:50:47.707Z,18.60
2019-02-04T23:53:50.880Z,16.57
2019-02-04T23:56:53.956Z,18.63
2019-02-04T23:59:57.084Z,15.87
